SANT/TUC METAR and TAF weather

Enter ICAO airport designator
Station Type Date Time Source
SANT METAR 2019/07/17 18:00 UTC NOAA

SANT 171800Z 00000KT 5000 FU NSC 21/13 Q1015


Station Type Date Time Source
SANT Decoded METAR 2019/07/17 18:00 UTC NOAA

Tucuman Aerodrome, Argentina (SANT) 26-51S 065-06W 450M
Jul 17, 2019 - 02:00 PM EDT / 2019.07.17 1800 UTC
Wind: Calm:0
Visibility: 3 mile(s):0
Weather: smoke
Temperature: 69 F (21 C)
Dew Point: 55 F (13 C)
Relative Humidity: 60%
Pressure (altimeter): 29.97 in. Hg (1015 hPa)
ob: SANT 171800Z 00000KT 5000 FU NSC 21/13 Q1015
cycle: 18

Station Type Date Time Source
SANT TAF 2019/07/17 18:33 UTC NOAA

TAF TAF SANT 171700Z 1718/1818 36005KT 5000 FU NSC TX24/1818Z TN11/1810Z
BECMG 1806/1808 3000 BR FU NSC

Example: see airport list